Time;durP1;ratioP1;P1;durP2;ratioP2;P2;SDS_P1;SDS_P2;PMS_P1;PMS_P2;Temp;Humidity;BMP_temperature;BMP_pressure;BME280_temperature;BME280_humidity;BME280_pressure;Samples;Min_cycle;Max_cycle;Signal;HPM_P1;HPM_P2
2022/04/26 03:37:44;;;;;;;48.67;42.80;;;;;;;;;;4976027;28;20481;-85
2022/04/26 03:40:12;;;;;;;43.97;39.53;;;;;;;;;;4975407;28;21008;-84
2022/04/26 03:42:39;;;;;;;50.75;41.28;;;;;;;;;;4975191;28;20501;-84
2022/04/26 03:45:07;;;;;;;47.55;42.78;;;;;;;;;;4976845;28;20242;-85
2022/04/26 03:47:34;;;;;;;45.57;40.97;;;;;;;;;;4977778;28;20207;-85
2022/04/26 03:50:03;;;;;;;52.67;44.83;;;;;;;;;;4978557;28;21040;-84
2022/04/26 03:52:30;;;;;;;46.15;41.13;;;;;;;;;;4980034;28;20192;-85
2022/04/26 03:54:58;;;;;;;48.08;41.78;;;;;;;;;;4977018;28;20291;-85
2022/04/26 03:57:26;;;;;;;51.10;43.60;;;;;;;;;;4975143;28;20777;-85
2022/04/26 03:59:54;;;;;;;50.10;42.77;;;;;;;;;;4992727;28;20427;-84
2022/04/26 04:02:22;;;;;;;49.25;44.00;;;;;;;;;;5023342;28;20449;-85
2022/04/26 04:04:49;;;;;;;47.60;41.78;;;;;;;;;;5040448;28;20194;-85
2022/04/26 04:07:18;;;;;;;54.60;43.07;;;;;;;;;;5043169;28;20201;-85
2022/04/26 04:09:46;;;;;;;54.28;45.78;;;;;;;;;;5043742;28;20422;-85
2022/04/26 04:12:13;;;;;;;47.63;42.53;;;;;;;;;;5046377;28;20285;-85
2022/04/26 04:14:40;;;;;;;47.05;41.95;;;;;;;;;;5045380;28;20200;-84
2022/04/26 04:17:08;;;;;;;45.78;41.00;;;;;;;;;;5036216;28;20598;-84
2022/04/26 04:19:36;;;;;;;55.97;47.15;;;;;;;;;;5036636;28;20201;-84
2022/04/26 04:22:05;;;;;;;55.25;44.88;;;;;;;;;;5034679;28;20631;-84
2022/04/26 04:24:33;;;;;;;54.92;48.90;;;;;;;;;;5035522;28;20193;-84
2022/04/26 04:27:01;;;;;;;53.53;47.30;;;;;;;;;;5034886;28;20185;-84
2022/04/26 04:29:28;;;;;;;53.37;46.63;;;;;;;;;;5035119;28;20418;-84
2022/04/26 04:31:56;;;;;;;54.60;46.58;;;;;;;;;;5035426;28;20418;-84
2022/04/26 04:34:23;;;;;;;58.85;50.63;;;;;;;;;;5036336;28;20639;-84
2022/04/26 04:36:50;;;;;;;55.58;48.30;;;;;;;;;;5035506;28;20256;-82
2022/04/26 04:39:19;;;;;;;64.57;51.90;;;;;;;;;;5035843;28;20193;-84
2022/04/26 04:41:48;;;;;;;52.55;46.95;;;;;;;;;;5036271;28;20201;-84
2022/04/26 04:44:15;;;;;;;58.40;49.65;;;;;;;;;;5035029;28;20189;-84
2022/04/26 04:46:43;;;;;;;53.67;47.75;;;;;;;;;;5034779;28;20698;-84
2022/04/26 04:49:10;;;;;;;52.88;47.30;;;;;;;;;;5034419;28;20198;-84
2022/04/26 04:51:37;;;;;;;51.73;46.40;;;;;;;;;;5035257;28;20200;-84
2022/04/26 04:54:05;;;;;;;56.13;46.30;;;;;;;;;;5036388;28;20441;-84
2022/04/26 04:56:32;;;;;;;51.90;46.45;;;;;;;;;;5034129;28;20283;-84
2022/04/26 04:59:01;;;;;;;51.22;45.97;;;;;;;;;;5035466;28;20271;-84
2022/04/26 05:01:28;;;;;;;52.37;46.87;;;;;;;;;;5033812;28;20196;-84
2022/04/26 05:03:57;;;;;;;52.50;46.72;;;;;;;;;;5033729;28;20444;-83
2022/04/26 05:06:24;;;;;;;53.50;47.67;;;;;;;;;;5034889;28;20185;-84
2022/04/26 05:08:51;;;;;;;53.05;47.40;;;;;;;;;;5033971;28;20206;-84
2022/04/26 05:11:19;;;;;;;54.15;48.28;;;;;;;;;;5033938;28;20590;-84
2022/04/26 05:13:46;;;;;;;50.83;45.53;;;;;;;;;;5037290;28;20197;-84
2022/04/26 05:16:15;;;;;;;52.38;46.70;;;;;;;;;;5034777;28;20263;-84
2022/04/26 05:18:42;;;;;;;54.08;46.63;;;;;;;;;;5037844;28;20190;-84
2022/04/26 05:21:10;;;;;;;52.17;46.87;;;;;;;;;;5019128;28;20280;-83
2022/04/26 05:26:23;;;;;;;49.85;44.35;;;;;;;;;;5034924;28;20212;-84
2022/04/26 05:28:50;;;;;;;50.13;44.70;;;;;;;;;;5039137;28;20194;-83
2022/04/26 05:31:19;;;;;;;51.78;46.05;;;;;;;;;;5039924;28;20193;-83
2022/04/26 05:33:47;;;;;;;46.47;42.07;;;;;;;;;;5036755;28;20201;-83
2022/04/26 05:36:15;;;;;;;47.55;42.55;;;;;;;;;;5036195;28;20465;-83
2022/04/26 05:38:42;;;;;;;47.45;42.58;;;;;;;;;;5034561;28;20193;-83
2022/04/26 05:41:09;;;;;;;46.53;42.17;;;;;;;;;;5034209;28;20200;-84
2022/04/26 05:43:37;;;;;;;45.77;41.10;;;;;;;;;;5033292;28;20467;-83
2022/04/26 05:46:04;;;;;;;45.08;40.50;;;;;;;;;;5033183;28;20832;-84
2022/04/26 05:48:33;;;;;;;45.10;40.80;;;;;;;;;;5033466;28;20349;-84
2022/04/26 05:51:00;;;;;;;45.00;40.20;;;;;;;;;;5033380;28;20415;-84
2022/04/26 05:53:29;;;;;;;45.47;40.85;;;;;;;;;;5035319;28;20422;-84
2022/04/26 05:55:56;;;;;;;45.63;41.20;;;;;;;;;;5034858;28;20193;-84
2022/04/26 05:58:23;;;;;;;43.07;38.97;;;;;;;;;;5034062;28;20480;-84
2022/04/26 06:00:51;;;;;;;44.00;39.47;;;;;;;;;;5032813;28;20422;-83
2022/04/26 06:03:18;;;;;;;44.23;39.80;;;;;;;;;;5032835;28;20444;-84
2022/04/26 06:05:47;;;;;;;43.07;38.50;;;;;;;;;;5033156;28;20441;-83
2022/04/26 06:08:14;;;;;;;47.37;42.50;;;;;;;;;;5033202;28;20415;-83
2022/04/26 06:10:42;;;;;;;45.03;40.53;;;;;;;;;;5033089;28;20807;-84
2022/04/26 06:13:09;;;;;;;45.70;41.00;;;;;;;;;;5033186;28;20447;-84
2022/04/26 06:15:37;;;;;;;44.43;40.07;;;;;;;;;;5033598;28;20464;-84
2022/04/26 06:18:04;;;;;;;47.47;42.03;;;;;;;;;;5033499;28;20481;-85
2022/04/26 06:20:32;;;;;;;46.23;41.20;;;;;;;;;;5032687;28;20922;-83
2022/04/26 06:23:02;;;;;;;45.20;40.80;;;;;;;;;;5032850;28;20415;-84
2022/04/26 06:25:29;;;;;;;47.53;42.73;;;;;;;;;;5033204;28;20500;-84
2022/04/26 06:27:56;;;;;;;47.03;42.47;;;;;;;;;;5033035;28;20419;-84
2022/04/26 06:30:24;;;;;;;44.43;40.03;;;;;;;;;;5033157;28;20441;-85
2022/04/26 06:32:51;;;;;;;46.33;41.87;;;;;;;;;;5032875;28;20816;-83
2022/04/26 06:35:19;;;;;;;45.70;41.10;;;;;;;;;;5033019;28;20432;-83
2022/04/26 06:37:46;;;;;;;44.93;40.60;;;;;;;;;;5034881;28;20447;-89
2022/04/26 06:40:15;;;;;;;43.30;39.10;;;;;;;;;;5037771;28;20482;-83
2022/04/26 06:42:42;;;;;;;43.77;39.50;;;;;;;;;;5037114;28;20450;-83
2022/04/26 06:45:10;;;;;;;44.10;39.87;;;;;;;;;;5042370;28;21049;-84
2022/04/26 06:47:37;;;;;;;43.37;39.10;;;;;;;;;;5044740;28;20403;-83
2022/04/26 06:50:04;;;;;;;45.53;40.60;;;;;;;;;;5044893;28;20435;-89
2022/04/26 06:52:32;;;;;;;45.23;40.93;;;;;;;;;;5046599;28;20898;-84
2022/04/26 06:55:00;;;;;;;42.47;38.00;;;;;;;;;;5037790;28;20486;-83
2022/04/26 06:57:29;;;;;;;45.03;40.53;;;;;;;;;;5037801;28;20474;-84
2022/04/26 06:59:56;;;;;;;46.20;41.63;;;;;;;;;;5036823;28;20426;-83
2022/04/26 07:02:23;;;;;;;44.87;40.47;;;;;;;;;;5036043;28;20800;-83
2022/04/26 07:04:54;;;;;;;44.53;39.97;;;;;;;;;;5036379;28;20423;-82
2022/04/26 07:07:22;;;;;;;44.30;39.70;;;;;;;;;;5036207;28;20885;-83
2022/04/26 07:09:50;;;;;;;43.87;39.80;;;;;;;;;;5039322;28;20453;-83
2022/04/26 07:12:17;;;;;;;43.03;38.93;;;;;;;;;;5036132;28;20506;-83
2022/04/26 07:14:46;;;;;;;44.37;39.67;;;;;;;;;;5035828;28;20445;-84
2022/04/26 07:17:13;;;;;;;42.27;38.47;;;;;;;;;;5035906;28;20483;-83
2022/04/26 07:19:41;;;;;;;46.43;41.50;;;;;;;;;;5035723;28;20422;-82
2022/04/26 07:22:09;;;;;;;46.97;42.33;;;;;;;;;;5036206;28;20898;-83
2022/04/26 07:24:37;;;;;;;46.30;41.70;;;;;;;;;;5036012;28;20426;-83
2022/04/26 07:27:05;;;;;;;45.20;40.90;;;;;;;;;;5035494;28;20838;-83
2022/04/26 07:29:32;;;;;;;47.30;42.57;;;;;;;;;;5036362;28;20819;-83
2022/04/26 07:32:01;;;;;;;44.50;39.80;;;;;;;;;;5035507;28;20444;-84
2022/04/26 07:34:27;;;;;;;46.23;41.20;;;;;;;;;;5018046;28;20423;-83
2022/04/26 07:36:59;;;;;;;43.50;39.50;;;;;;;;;;5036956;28;20800;-83
2022/04/26 07:39:26;;;;;;;43.50;39.40;;;;;;;;;;5036299;28;20426;-82
2022/04/26 07:41:54;;;;;;;44.77;40.23;;;;;;;;;;5036970;28;20419;-82
2022/04/26 07:44:22;;;;;;;43.97;39.63;;;;;;;;;;5036105;28;20439;-82
2022/04/26 07:46:50;;;;;;;43.10;39.00;;;;;;;;;;5019313;28;20453;-82
2022/04/26 07:49:20;;;;;;;44.73;40.57;;;;;;;;;;5036306;28;20824;-83
2022/04/26 07:51:48;;;;;;;44.10;39.83;;;;;;;;;;5035911;28;20418;-83
2022/04/26 07:54:16;;;;;;;45.67;41.37;;;;;;;;;;5036666;28;20431;-87
2022/04/26 07:56:44;;;;;;;43.13;39.03;;;;;;;;;;5025158;28;20473;-81
2022/04/26 07:59:12;;;;;;;42.73;38.53;;;;;;;;;;5029421;28;20475;-81
2022/04/26 08:01:39;;;;;;;42.97;38.73;;;;;;;;;;5035047;28;20456;-81
2022/04/26 08:04:07;;;;;;;41.70;37.77;;;;;;;;;;5036162;28;20419;-84
2022/04/26 08:06:36;;;;;;;42.03;38.37;;;;;;;;;;5037888;28;20846;-85
2022/04/26 08:09:03;;;;;;;42.93;38.73;;;;;;;;;;5037281;28;20889;-85
2022/04/26 08:11:30;;;;;;;43.00;39.00;;;;;;;;;;5035955;28;20911;-86
2022/04/26 08:13:58;;;;;;;44.23;40.07;;;;;;;;;;5037925;28;20440;-91
2022/04/26 08:16:25;;;;;;;43.27;39.00;;;;;;;;;;5037036;28;20462;-86
2022/04/26 08:18:53;;;;;;;42.93;38.80;;;;;;;;;;5036073;28;20488;-84
2022/04/26 08:21:21;;;;;;;42.57;38.47;;;;;;;;;;5036077;28;20456;-84
2022/04/26 08:29:22;;;;;;;42.10;37.70;;;;;;;;;;5036061;28;20495;-84
2022/04/26 08:31:49;;;;;;;40.73;37.00;;;;;;;;;;5035747;28;20419;-85
2022/04/26 08:34:17;;;;;;;41.03;37.43;;;;;;;;;;5035599;28;20448;-86
2022/04/26 08:36:46;;;;;;;41.27;37.57;;;;;;;;;;5034880;28;20494;-82
2022/04/26 08:39:15;;;;;;;41.23;37.53;;;;;;;;;;5035158;28;20502;-89
2022/04/26 08:41:42;;;;;;;41.77;37.77;;;;;;;;;;5036217;28;20972;-89
2022/04/26 08:44:10;;;;;;;45.07;40.57;;;;;;;;;;5038128;28;20456;-87
2022/04/26 08:52:08;;;;;;;46.77;42.27;;;;;;;;;;5037927;28;20757;-85
2022/04/26 08:54:37;;;;;;;48.20;43.63;;;;;;;;;;5025399;28;20449;-85
2022/04/26 08:57:04;;;;;;;44.50;40.57;;;;;;;;;;5043450;28;20452;-85
2022/04/26 08:59:32;;;;;;;46.40;42.40;;;;;;;;;;5048259;28;20404;-84
2022/04/26 09:02:23;;;;;;;44.60;40.50;;;;;;;;;;5038718;28;20423;-94
2022/04/26 09:04:51;;;;;;;47.77;43.57;;;;;;;;;;5013946;28;20435;-84
2022/04/26 09:07:29;;;;;;;47.67;43.17;;;;;;;;;;5035674;28;20414;-84
2022/04/26 09:10:06;;;;;;;48.00;43.40;;;;;;;;;;5033707;28;20440;-83
2022/04/26 09:12:34;;;;;;;45.63;41.47;;;;;;;;;;5033484;28;20443;-84
2022/04/26 09:15:16;;;;;;;45.87;41.60;;;;;;;;;;5033567;28;20785;-84
2022/04/26 09:17:44;;;;;;;44.20;40.10;;;;;;;;;;4993964;28;20470;-84
2022/04/26 09:20:11;;;;;;;41.20;37.50;;;;;;;;;;4994286;28;20417;-83
2022/04/26 09:22:39;;;;;;;43.40;39.50;;;;;;;;;;4993915;28;20477;-84
2022/04/26 09:25:09;;;;;;;43.13;39.40;;;;;;;;;;4994210;28;20938;-84
2022/04/26 09:27:37;;;;;;;46.93;42.83;;;;;;;;;;4993885;28;20425;-85
2022/04/26 09:30:08;;;;;;;43.23;39.33;;;;;;;;;;4993742;28;20442;-84
2022/04/26 09:32:45;;;;;;;39.73;36.40;;;;;;;;;;4994063;28;20470;-84
2022/04/26 09:35:19;;;;;;;42.43;38.63;;;;;;;;;;4993687;28;20914;-84
2022/04/26 09:37:47;;;;;;;42.50;38.57;;;;;;;;;;4993840;28;20499;-84
2022/04/26 09:40:15;;;;;;;44.37;40.47;;;;;;;;;;4993671;28;20442;-84
2022/04/26 09:42:43;;;;;;;42.50;38.77;;;;;;;;;;4993717;28;20437;-83
2022/04/26 09:45:13;;;;;;;45.13;41.10;;;;;;;;;;4993402;28;20448;-82
2022/04/26 09:47:41;;;;;;;42.20;38.60;;;;;;;;;;4993515;28;20944;-82
2022/04/26 09:50:09;;;;;;;39.73;36.23;;;;;;;;;;4993538;28;20462;-82
2022/04/26 09:52:37;;;;;;;44.50;40.60;;;;;;;;;;4993394;28;20566;-83
2022/04/26 09:55:05;;;;;;;42.30;38.87;;;;;;;;;;4993508;28;20472;-83
2022/04/26 09:57:35;;;;;;;39.83;36.57;;;;;;;;;;4992426;28;20423;-83
2022/04/26 10:00:02;;;;;;;39.10;35.90;;;;;;;;;;4993378;28;20438;-82
2022/04/26 10:02:32;;;;;;;42.13;38.73;;;;;;;;;;4992019;28;20537;-82
2022/04/26 10:05:00;;;;;;;40.40;37.20;;;;;;;;;;4993067;28;21136;-81
2022/04/26 10:07:29;;;;;;;41.13;37.80;;;;;;;;;;4991950;28;20944;-83
2022/04/26 10:09:57;;;;;;;41.50;37.77;;;;;;;;;;4993204;28;20423;-82
2022/04/26 10:12:25;;;;;;;40.67;37.27;;;;;;;;;;4993234;28;20527;-82
2022/04/26 10:14:54;;;;;;;40.30;37.00;;;;;;;;;;4993068;28;20446;-82
2022/04/26 10:17:21;;;;;;;35.60;32.43;;;;;;;;;;5027810;28;20459;-83
2022/04/26 10:19:48;;;;;;;32.60;30.10;;;;;;;;;;5035071;28;20463;-83
2022/04/26 10:22:17;;;;;;;31.43;29.10;;;;;;;;;;5036555;28;20444;-83
2022/04/26 10:25:00;;;;;;;33.93;31.33;;;;;;;;;;5036828;28;20768;-83
2022/04/26 10:27:27;;;;;;;33.87;31.07;;;;;;;;;;5035763;28;20538;-83
2022/04/26 10:29:56;;;;;;;34.50;31.90;;;;;;;;;;5036466;28;20487;-84
2022/04/26 10:32:30;;;;;;;36.13;33.20;;;;;;;;;;5036177;28;20887;-84
2022/04/26 10:34:58;;;;;;;35.87;33.10;;;;;;;;;;5036612;28;20471;-83
2022/04/26 10:37:32;;;;;;;35.00;32.30;;;;;;;;;;5036405;28;20984;-82
2022/04/26 10:40:00;;;;;;;36.00;33.10;;;;;;;;;;5036380;28;20505;-83
2022/04/26 10:42:28;;;;;;;34.47;31.93;;;;;;;;;;5036209;28;20791;-82
2022/04/26 10:45:07;;;;;;;35.07;32.23;;;;;;;;;;5036247;28;20458;-82
2022/04/26 10:47:35;;;;;;;35.50;33.00;;;;;;;;;;5036632;28;20447;-82
2022/04/26 10:50:06;;;;;;;37.70;34.90;;;;;;;;;;5036649;28;20480;-84
2022/04/26 10:52:40;;;;;;;36.33;33.53;;;;;;;;;;5035969;28;20432;-83
2022/04/26 10:55:12;;;;;;;33.47;30.90;;;;;;;;;;5035887;28;20419;-82
2022/04/26 10:57:41;;;;;;;34.43;31.63;;;;;;;;;;5036137;28;20950;-83
2022/04/26 11:00:13;;;;;;;32.43;30.03;;;;;;;;;;5036121;28;20816;-83
2022/04/26 11:02:42;;;;;;;35.00;32.20;;;;;;;;;;5017889;28;20460;-83
2022/04/26 11:05:10;;;;;;;34.60;32.07;;;;;;;;;;5036027;28;20452;-83
2022/04/26 11:07:38;;;;;;;32.57;30.30;;;;;;;;;;5035838;28;20459;-84
2022/04/26 11:10:07;;;;;;;34.57;32.10;;;;;;;;;;5036402;28;20460;-84
2022/04/26 11:12:35;;;;;;;35.60;32.77;;;;;;;;;;5035756;28;20950;-85
2022/04/26 11:15:03;;;;;;;36.03;33.20;;;;;;;;;;5017993;28;20448;-84
2022/04/26 11:17:33;;;;;;;35.30;32.80;;;;;;;;;;5035368;28;20483;-85
2022/04/26 11:20:01;;;;;;;34.50;32.00;;;;;;;;;;5036049;28;20490;-83
2022/04/26 11:22:28;;;;;;;32.53;30.23;;;;;;;;;;5036007;28;20444;-84
2022/04/26 11:28:00;;;;;;;31.03;28.93;;;;;;;;;;5035561;28;20495;-83
2022/04/26 11:30:30;;;;;;;31.50;29.40;;;;;;;;;;5035535;28;20411;-84
2022/04/26 11:32:59;;;;;;;31.00;28.97;;;;;;;;;;5035861;28;20419;-84
2022/04/26 11:35:26;;;;;;;32.40;30.10;;;;;;;;;;5035611;28;20403;-83
2022/04/26 11:37:54;;;;;;;31.23;28.93;;;;;;;;;;5035259;28;20467;-84
2022/04/26 11:40:23;;;;;;;31.07;29.03;;;;;;;;;;5035342;28;20789;-84
2022/04/26 11:42:51;;;;;;;29.50;27.50;;;;;;;;;;5035830;28;20419;-84
2022/04/26 11:45:18;;;;;;;30.93;28.73;;;;;;;;;;5035244;28;20439;-85
2022/04/26 11:47:48;;;;;;;32.27;30.07;;;;;;;;;;5035498;28;20450;-85
2022/04/26 11:50:33;;;;;;;33.20;30.90;;;;;;;;;;5035436;28;20462;-84
2022/04/26 11:53:04;;;;;;;35.13;32.67;;;;;;;;;;5035402;28;20811;-85
2022/04/26 11:55:32;;;;;;;37.03;34.33;;;;;;;;;;5035406;28;20444;-83
2022/04/26 11:58:10;;;;;;;37.37;34.60;;;;;;;;;;5035160;28;20419;-85
2022/04/26 12:00:37;;;;;;;38.20;35.33;;;;;;;;;;5035266;28;20418;-84
2022/04/26 12:03:08;;;;;;;37.40;34.70;;;;;;;;;;5034996;28;20656;-85
2022/04/26 12:05:40;;;;;;;38.50;35.77;;;;;;;;;;5034815;28;20513;-85
2022/04/26 12:08:11;;;;;;;38.90;36.20;;;;;;;;;;5034983;28;20444;-85
2022/04/26 12:10:38;;;;;;;37.50;34.70;;;;;;;;;;5034683;28;20456;-84
2022/04/26 12:13:06;;;;;;;39.80;36.70;;;;;;;;;;5034888;28;20855;-85
2022/04/26 12:15:34;;;;;;;38.13;35.17;;;;;;;;;;5034516;28;20462;-84
2022/04/26 12:18:06;;;;;;;40.53;37.20;;;;;;;;;;5034979;28;20447;-85
2022/04/26 12:20:35;;;;;;;38.20;35.43;;;;;;;;;;5035126;28;20443;-84
2022/04/26 12:23:04;;;;;;;38.43;35.40;;;;;;;;;;5034635;28;20417;-84
2022/04/26 12:25:33;;;;;;;37.60;34.90;;;;;;;;;;5034668;28;20505;-85
2022/04/26 12:28:05;;;;;;;36.87;33.97;;;;;;;;;;5034668;28;20923;-85
2022/04/26 12:30:33;;;;;;;35.90;33.20;;;;;;;;;;5034485;28;20452;-84
2022/04/26 12:33:00;;;;;;;34.20;31.80;;;;;;;;;;5034348;28;20535;-84
2022/04/26 12:35:28;;;;;;;35.50;32.80;;;;;;;;;;5034417;28;20448;-84
2022/04/26 12:38:07;;;;;;;36.23;33.70;;;;;;;;;;5034394;28;20435;-84
2022/04/26 12:40:34;;;;;;;34.60;32.00;;;;;;;;;;5034287;28;20472;-84
2022/04/26 12:43:02;;;;;;;34.30;31.80;;;;;;;;;;5033715;28;20440;-83
2022/04/26 12:45:29;;;;;;;33.60;31.20;;;;;;;;;;5034193;28;20547;-83
2022/04/26 12:50:52;;;;;;;34.73;32.13;;;;;;;;;;5033751;28;20509;-83
2022/04/26 12:53:24;;;;;;;33.90;31.50;;;;;;;;;;5033892;28;20432;-84
2022/04/26 12:55:52;;;;;;;34.90;31.97;;;;;;;;;;5033931;28;20455;-83
2022/04/26 12:58:20;;;;;;;34.47;31.97;;;;;;;;;;5034049;28;20431;-83
2022/04/26 13:00:50;;;;;;;33.47;31.07;;;;;;;;;;5033760;28;20411;-85
2022/04/26 13:03:18;;;;;;;33.83;31.33;;;;;;;;;;5033720;28;20417;-84
2022/04/26 13:05:47;;;;;;;34.13;31.70;;;;;;;;;;5033951;28;20914;-84
2022/04/26 13:08:15;;;;;;;35.27;32.67;;;;;;;;;;5033786;28;20415;-85
2022/04/26 13:10:44;;;;;;;34.63;32.03;;;;;;;;;;5034112;28;20485;-85
2022/04/26 13:13:11;;;;;;;34.47;31.93;;;;;;;;;;5033906;28;20901;-85
2022/04/26 13:15:41;;;;;;;33.13;30.87;;;;;;;;;;5033922;28;20476;-85
2022/04/26 13:18:08;;;;;;;32.40;30.10;;;;;;;;;;5034059;28;20489;-84
2022/04/26 13:20:36;;;;;;;33.30;30.80;;;;;;;;;;5033726;28;20462;-84
2022/04/26 13:23:04;;;;;;;31.10;28.93;;;;;;;;;;5034247;28;20527;-84
2022/04/26 13:25:31;;;;;;;31.17;29.13;;;;;;;;;;5035004;28;20415;-86
2022/04/26 13:28:00;;;;;;;30.87;28.77;;;;;;;;;;5034422;28;20414;-86
2022/04/26 13:30:28;;;;;;;31.33;29.37;;;;;;;;;;5033903;28;20448;-86
2022/04/26 13:32:55;;;;;;;31.63;29.47;;;;;;;;;;5033754;28;20415;-86
2022/04/26 13:35:22;;;;;;;31.80;29.80;;;;;;;;;;5033615;28;20441;-84
2022/04/26 13:37:52;;;;;;;31.13;29.03;;;;;;;;;;5033703;28;20418;-86
2022/04/26 13:40:19;;;;;;;32.30;30.20;;;;;;;;;;5033425;28;20839;-86
2022/04/26 13:42:47;;;;;;;30.50;28.60;;;;;;;;;;5033945;28;20416;-91
2022/04/26 13:45:16;;;;;;;32.57;30.10;;;;;;;;;;5017907;28;20465;-91
2022/04/26 13:47:44;;;;;;;31.00;28.80;;;;;;;;;;5017527;28;20445;-84
2022/04/26 13:50:12;;;;;;;30.57;28.47;;;;;;;;;;5033540;28;20431;-85
2022/04/26 13:52:42;;;;;;;30.40;28.30;;;;;;;;;;5033488;28;20419;-85
2022/04/26 13:55:09;;;;;;;30.53;28.60;;;;;;;;;;5033384;28;20459;-86
2022/04/26 13:57:38;;;;;;;30.53;28.50;;;;;;;;;;5033650;28;20423;-85
2022/04/26 14:00:06;;;;;;;29.27;27.47;;;;;;;;;;5033139;28;20470;-85
2022/04/26 14:02:36;;;;;;;31.77;29.43;;;;;;;;;;5033146;28;20427;-85
2022/04/26 14:05:04;;;;;;;31.20;29.17;;;;;;;;;;5033218;28;20835;-86
2022/04/26 14:07:31;;;;;;;30.50;28.40;;;;;;;;;;5015664;28;20464;-85
2022/04/26 14:09:59;;;;;;;33.60;31.30;;;;;;;;;;5016319;28;20432;-86
2022/04/26 14:12:26;;;;;;;33.17;30.97;;;;;;;;;;5033570;28;20479;-85
2022/04/26 14:23:10;;;;;;;33.63;31.33;;;;;;;;;;5032788;28;20398;-85
2022/04/26 14:25:38;;;;;;;36.13;33.50;;;;;;;;;;5033157;28;20415;-85
2022/04/26 14:28:06;;;;;;;35.40;33.03;;;;;;;;;;5032788;28;20444;-85
2022/04/26 14:30:33;;;;;;;39.20;36.40;;;;;;;;;;5033005;28;20494;-86
2022/04/26 14:33:02;;;;;;;36.13;33.43;;;;;;;;;;5032800;28;20901;-83
2022/04/26 14:35:31;;;;;;;36.83;34.13;;;;;;;;;;5032968;28;20447;-85
2022/04/26 14:37:59;;;;;;;35.73;33.07;;;;;;;;;;5032349;28;20791;-84
2022/04/26 14:40:26;;;;;;;34.00;31.60;;;;;;;;;;5033108;28;20503;-85
2022/04/26 14:42:54;;;;;;;35.53;32.93;;;;;;;;;;5033294;28;20395;-87
2022/04/26 14:45:22;;;;;;;34.77;32.30;;;;;;;;;;5033981;28;20446;-86
2022/04/26 14:47:50;;;;;;;37.03;34.30;;;;;;;;;;5014993;28;20444;-85
2022/04/26 14:50:19;;;;;;;35.37;32.63;;;;;;;;;;5032161;28;20496;-83
2022/04/26 14:52:46;;;;;;;37.17;34.40;;;;;;;;;;5032440;28;20444;-84
2022/04/26 14:55:13;;;;;;;33.07;30.77;;;;;;;;;;5032522;28;20452;-85
2022/04/26 14:57:41;;;;;;;33.93;31.47;;;;;;;;;;5032619;28;20436;-83
2022/04/26 15:00:09;;;;;;;35.30;32.80;;;;;;;;;;5032227;28;20470;-85
2022/04/26 15:02:39;;;;;;;34.10;31.60;;;;;;;;;;5015176;28;20434;-85
2022/04/26 15:05:08;;;;;;;32.63;30.43;;;;;;;;;;5033729;28;20466;-86
2022/04/26 15:10:23;;;;;;;33.27;31.03;;;;;;;;;;5024102;28;20409;-86
2022/04/26 15:18:17;;;;;;;30.40;27.90;;;;;;;;;;5003348;28;20520;-86
2022/04/26 15:20:48;;;;;;;31.70;29.30;;;;;;;;;;5019068;28;20817;-85
2022/04/26 15:23:17;;;;;;;32.73;30.63;;;;;;;;;;5035880;28;20477;-85
2022/04/26 15:25:50;;;;;;;31.57;29.47;;;;;;;;;;5035951;28;20468;-85
2022/04/26 15:28:17;;;;;;;32.90;30.33;;;;;;;;;;5035905;28;20453;-85
2022/04/26 15:30:45;;;;;;;31.63;29.33;;;;;;;;;;5036937;28;20433;-85
2022/04/26 15:33:13;;;;;;;31.87;29.57;;;;;;;;;;5035359;28;20604;-86
2022/04/26 15:35:42;;;;;;;32.87;30.57;;;;;;;;;;5035644;28;20827;-86
2022/04/26 15:38:12;;;;;;;31.50;29.37;;;;;;;;;;5036024;28;20411;-89
2022/04/26 15:40:41;;;;;;;31.47;29.20;;;;;;;;;;5040743;28;21037;-91
2022/04/26 15:43:09;;;;;;;32.50;30.30;;;;;;;;;;5043303;28;20428;-91
2022/04/26 15:45:37;;;;;;;32.70;30.47;;;;;;;;;;5037747;28;20434;-89
2022/04/26 15:48:05;;;;;;;30.20;28.10;;;;;;;;;;5035749;28;20487;-90
2022/04/26 15:50:32;;;;;;;31.90;29.50;;;;;;;;;;5036479;28;20441;-91
2022/04/26 15:53:00;;;;;;;30.63;28.63;;;;;;;;;;5018590;28;20986;-90
2022/04/26 15:55:27;;;;;;;32.27;30.17;;;;;;;;;;5036737;28;20411;-92
2022/04/26 15:57:56;;;;;;;32.23;30.23;;;;;;;;;;5037032;28;20444;-91
2022/04/26 16:00:23;;;;;;;32.97;30.63;;;;;;;;;;5039684;28;20477;-94
2022/04/26 16:02:51;;;;;;;31.73;29.53;;;;;;;;;;5039913;28;20460;-92
2022/04/26 16:05:19;;;;;;;32.90;30.60;;;;;;;;;;5036386;28;20470;-86
2022/04/26 16:07:47;;;;;;;32.27;30.00;;;;;;;;;;5035561;28;20423;-86
2022/04/26 16:21:17;;;;;;;32.83;30.67;;;;;;;;;;5034490;28;20487;-85
2022/04/26 16:23:45;;;;;;;33.43;31.13;;;;;;;;;;5034574;28;20418;-85
2022/04/26 16:26:13;;;;;;;33.37;30.97;;;;;;;;;;5034025;28;20448;-84
2022/04/26 16:28:42;;;;;;;32.73;30.43;;;;;;;;;;5032992;28;20438;-84
2022/04/26 16:31:10;;;;;;;32.10;29.80;;;;;;;;;;5034291;28;20452;-84
2022/04/26 16:33:37;;;;;;;33.67;31.10;;;;;;;;;;5033741;28;20799;-84
2022/04/26 16:36:05;;;;;;;33.03;30.13;;;;;;;;;;5034081;28;20916;-84
2022/04/26 16:38:32;;;;;;;31.77;29.77;;;;;;;;;;5034319;28;20445;-83
2022/04/26 16:41:03;;;;;;;31.87;29.63;;;;;;;;;;5034048;28;20488;-84
2022/04/26 16:43:30;;;;;;;32.20;29.83;;;;;;;;;;5032879;28;20423;-81
2022/04/26 16:46:01;;;;;;;31.40;29.23;;;;;;;;;;5034768;28;20427;-84
2022/04/26 16:48:29;;;;;;;33.33;30.83;;;;;;;;;;5025370;28;20472;-84
2022/04/26 16:50:56;;;;;;;31.80;29.70;;;;;;;;;;5023170;28;20468;-84
2022/04/26 16:53:23;;;;;;;31.50;29.30;;;;;;;;;;5023758;28;20464;-84
2022/04/26 16:55:51;;;;;;;32.73;30.07;;;;;;;;;;5022084;28;20506;-84
2022/04/26 16:58:18;;;;;;;31.23;29.03;;;;;;;;;;5023476;28;20824;-84
2022/04/26 17:00:47;;;;;;;34.07;31.50;;;;;;;;;;5024141;28;20917;-84
2022/04/26 17:03:16;;;;;;;32.23;30.03;;;;;;;;;;5020933;28;20816;-82
2022/04/26 17:05:47;;;;;;;35.80;33.20;;;;;;;;;;5022853;28;20454;-82
2022/04/26 17:08:16;;;;;;;37.60;34.87;;;;;;;;;;5022911;28;20426;-83
2022/04/26 17:10:43;;;;;;;34.43;32.13;;;;;;;;;;5023041;28;20428;-84
2022/04/26 17:13:10;;;;;;;37.77;34.93;;;;;;;;;;5021829;28;20895;-82
2022/04/26 17:15:38;;;;;;;32.53;30.13;;;;;;;;;;5020559;28;20554;-83
2022/04/26 17:18:06;;;;;;;33.70;31.10;;;;;;;;;;5024136;28;20453;-81
2022/04/26 17:20:35;;;;;;;43.77;40.47;;;;;;;;;;5020333;28;21001;-84
2022/04/26 17:23:03;;;;;;;34.37;31.77;;;;;;;;;;5023138;28;20457;-83
2022/04/26 17:25:34;;;;;;;32.20;30.00;;;;;;;;;;5003516;28;20423;-84
2022/04/26 17:28:02;;;;;;;33.03;30.53;;;;;;;;;;5004265;28;20955;-84
2022/04/26 17:30:29;;;;;;;36.17;33.27;;;;;;;;;;5023061;28;20422;-84
2022/04/26 17:32:56;;;;;;;34.67;32.27;;;;;;;;;;5023241;28;20457;-84
2022/04/26 17:35:24;;;;;;;33.53;31.17;;;;;;;;;;5022926;28;20916;-84
2022/04/26 17:37:53;;;;;;;34.33;31.60;;;;;;;;;;5022365;28;20434;-83
2022/04/26 17:40:21;;;;;;;32.87;30.40;;;;;;;;;;5022984;28;20474;-83
2022/04/26 17:42:48;;;;;;;34.93;32.43;;;;;;;;;;5003088;28;20472;-84
2022/04/26 17:45:16;;;;;;;35.17;32.10;;;;;;;;;;5022269;28;20455;-84
2022/04/26 17:47:43;;;;;;;32.20;29.70;;;;;;;;;;5021606;28;20506;-84
2022/04/26 17:50:11;;;;;;;33.20;30.80;;;;;;;;;;5020965;28;20448;-80
2022/04/26 17:56:28;;;;;;;32.20;29.77;;;;;;;;;;5022202;28;20808;-84
2022/04/26 17:58:12;;;;;;;31.90;29.80;;;;;;;;;;5020555;28;20435;-84
2022/04/26 18:00:40;;;;;;;34.03;31.50;;;;;;;;;;5022960;28;20481;-82
2022/04/26 18:03:07;;;;;;;34.17;31.57;;;;;;;;;;5022317;28;20419;-83
2022/04/26 18:08:25;;;;;;;34.43;31.90;;;;;;;;;;5018585;28;20463;-83
2022/04/26 18:10:55;;;;;;;35.43;32.80;;;;;;;;;;5022457;28;20909;-83
2022/04/26 18:13:22;;;;;;;34.33;31.87;;;;;;;;;;5022492;28;20535;-82
2022/04/26 18:15:54;;;;;;;33.90;31.50;;;;;;;;;;5022994;28;21070;-84
2022/04/26 18:18:23;;;;;;;34.87;32.50;;;;;;;;;;5023266;28;20484;-83
2022/04/26 18:20:50;;;;;;;35.40;32.80;;;;;;;;;;5023188;28;20471;-83
2022/04/26 18:23:18;;;;;;;36.20;33.57;;;;;;;;;;5020887;28;20453;-83
2022/04/26 18:28:31;;;;;;;37.73;35.00;;;;;;;;;;5022972;28;20409;-80
2022/04/26 18:30:59;;;;;;;37.27;34.23;;;;;;;;;;5021388;28;20926;-83
2022/04/26 18:33:27;;;;;;;39.00;36.10;;;;;;;;;;5005706;28;20451;-80
2022/04/26 18:35:54;;;;;;;39.73;36.63;;;;;;;;;;5022831;28;20425;-83
2022/04/26 18:38:22;;;;;;;39.50;36.40;;;;;;;;;;5021146;28;20820;-83
2022/04/26 18:40:50;;;;;;;37.07;34.07;;;;;;;;;;5004735;28;20589;-82
2022/04/26 18:43:17;;;;;;;37.80;35.07;;;;;;;;;;5023549;28;20507;-82
2022/04/26 18:45:46;;;;;;;35.87;33.37;;;;;;;;;;5024058;28;20513;-82
2022/04/26 18:48:14;;;;;;;38.77;35.97;;;;;;;;;;5024160;28;20456;-84
2022/04/26 18:50:41;;;;;;;36.80;34.10;;;;;;;;;;5023600;28;20419;-82
2022/04/26 18:53:10;;;;;;;36.93;34.23;;;;;;;;;;5023267;28;20492;-82
2022/04/26 18:55:38;;;;;;;40.33;36.70;;;;;;;;;;5023432;28;20431;-81